Maersk Lota — 9V9777 — position and weather

sailwx.info

Track history (hours):
 
Tides and Currents Weather Stations Pressure Air Temp Water Temp Dewpoint Dewpoint Depression Visibility Wind Speed Wind Dir Waves Ship Positions

Maersk Lota

Last reported at 2017-Nov-18 14:51 UTC. Time now 2017-Nov-20 00:33 UTC.
Position S 24°44' W 046°52'.

Length 300 m; draft 10.2 m.

Type: Ship (hazmat cat A). MMSI: 566383000.

Date/timePositionNaut miles runAvg speedWind from/ knotsBaromVisibWave heightAir tempDewpointWater temp
2017-Nov-18 14:51S 24°44' W 046°52'310.2
2017-Nov-18 14:30S 24°41' W 046°49'510.1
2017-Nov-18 14:00S 24°38' W 046°45'510.3
2017-Nov-18 13:30S 24°34' W 046°41'510.6
2017-Nov-18 13:00S 24°30' W 046°37'510.7
2017-Nov-18 12:30S 24°26' W 046°33'510.9
2017-Nov-18 12:00S 24°22' W 046°29'510.8
2017-Nov-18 11:30S 24°17' W 046°27'511.0
2017-Nov-18 11:00S 24°12' W 046°25'510.9
2017-Nov-18 10:30S 24°07' W 046°23'510.8
2017-Nov-18 10:00S 24°02' W 046°21'4 8.7
2017-Nov-18 09:30S 23°58' W 046°17'5 0.3
2017-Nov-17 16:49S 23°55' W 046°21'2 4.7
2017-Nov-17 16:22S 23°56' W 046°19'3 9.1
2017-Nov-17 16:00S 23°59' W 046°17'4 7.3
2017-Nov-17 15:30S 24°01' W 046°21'713.1
2017-Nov-17 15:00S 24°07' W 046°23'2 4.0
2017-Nov-17 14:30S 24°09' W 046°25'1 1.0
2017-Nov-17 14:00S 24°09' W 046°24'1 1.3
2017-Nov-17 13:30S 24°09' W 046°24'2 4.0
2017-Nov-17 13:00S 24°11' W 046°24'611.7
2017-Nov-17 12:30S 24°15' W 046°19'612.5
2017-Nov-17 12:00S 24°15' W 046°12'612.4
2017-Nov-17 11:30S 24°14' W 046°05'612.2
2017-Nov-17 11:00S 24°14' W 045°59'612.1
2017-Nov-17 10:30S 24°13' W 045°52'612.2
2017-Nov-17 10:00S 24°13' W 045°45'712.1
2017-Nov-17 09:26S 24°13' W 045°38'  
Track history (hours):
 
Tides and Currents Weather Stations Pressure Air Temp Water Temp Dewpoint Dewpoint Depression Visibility Wind Speed Wind Dir Waves Ship Positions

Maersk Lota

Last reported at 2017-Nov-18 14:51 UTC. Time now 2017-Nov-20 00:33 UTC.
Position S 24°44' W 046°52'.

Length 300 m; draft 10.2 m.

Type: Ship (hazmat cat A). MMSI: 566383000.

Date/timePositionNaut miles runAvg speedWind from/ knotsBaromVisibWave heightAir tempDewpointWater temp
2017-Nov-18 14:51S 24°44' W 046°52'310.2
2017-Nov-18 14:30S 24°41' W 046°49'510.1
2017-Nov-18 14:00S 24°38' W 046°45'510.3
2017-Nov-18 13:30S 24°34' W 046°41'510.6
2017-Nov-18 13:00S 24°30' W 046°37'510.7
2017-Nov-18 12:30S 24°26' W 046°33'510.9
2017-Nov-18 12:00S 24°22' W 046°29'510.8
2017-Nov-18 11:30S 24°17' W 046°27'511.0
2017-Nov-18 11:00S 24°12' W 046°25'510.9
2017-Nov-18 10:30S 24°07' W 046°23'510.8
2017-Nov-18 10:00S 24°02' W 046°21'4 8.7
2017-Nov-18 09:30S 23°58' W 046°17'5 0.3
2017-Nov-17 16:49S 23°55' W 046°21'2 4.7
2017-Nov-17 16:22S 23°56' W 046°19'3 9.1
2017-Nov-17 16:00S 23°59' W 046°17'4 7.3
2017-Nov-17 15:30S 24°01' W 046°21'713.1
2017-Nov-17 15:00S 24°07' W 046°23'2 4.0
2017-Nov-17 14:30S 24°09' W 046°25'1 1.0
2017-Nov-17 14:00S 24°09' W 046°24'1 1.3
2017-Nov-17 13:30S 24°09' W 046°24'2 4.0
2017-Nov-17 13:00S 24°11' W 046°24'611.7
2017-Nov-17 12:30S 24°15' W 046°19'612.5
2017-Nov-17 12:00S 24°15' W 046°12'612.4
2017-Nov-17 11:30S 24°14' W 046°05'612.2
2017-Nov-17 11:00S 24°14' W 045°59'612.1
2017-Nov-17 10:30S 24°13' W 045°52'612.2
2017-Nov-17 10:00S 24°13' W 045°45'712.1
2017-Nov-17 09:26S 24°13' W 045°38'  

Dump ship's entire track history